sensor_id;sensor_type;location;lat;lon;timestamp;pressure;altitude;pressure_sealevel;temperature;humidity
50368;BME280;36281;34.132;-118.018;2023-05-18T00:00:36;99480.38;;;27.67;41.12
50368;BME280;36281;34.132;-118.018;2023-05-18T00:03:06;99488.50;;;27.55;40.75
50368;BME280;36281;34.132;-118.018;2023-05-18T00:05:35;99479.16;;;27.44;41.04
50368;BME280;36281;34.132;-118.018;2023-05-18T00:08:05;99482.06;;;27.39;41.15
50368;BME280;36281;34.132;-118.018;2023-05-18T00:10:36;99481.69;;;27.28;41.22
50368;BME280;36281;34.132;-118.018;2023-05-18T00:13:05;99490.25;;;27.18;41.38
50368;BME280;36281;34.132;-118.018;2023-05-18T00:15:37;99495.25;;;27.07;41.37
50368;BME280;36281;34.132;-118.018;2023-05-18T00:18:06;99482.25;;;26.92;42.26
50368;BME280;36281;34.132;-118.018;2023-05-18T00:20:36;99491.03;;;26.89;42.19
50368;BME280;36281;34.132;-118.018;2023-05-18T00:23:05;99489.19;;;26.80;41.94
50368;BME280;36281;34.132;-118.018;2023-05-18T00:25:37;99486.19;;;26.73;42.08
50368;BME280;36281;34.132;-118.018;2023-05-18T00:28:07;99493.72;;;26.68;42.26
50368;BME280;36281;34.132;-118.018;2023-05-18T00:30:38;99476.22;;;26.57;42.46
50368;BME280;36281;34.132;-118.018;2023-05-18T00:33:07;99486.94;;;26.53;42.94
50368;BME280;36281;34.132;-118.018;2023-05-18T00:35:36;99488.56;;;26.45;42.65
50368;BME280;36281;34.132;-118.018;2023-05-18T00:38:05;99484.59;;;26.43;43.27
50368;BME280;36281;34.132;-118.018;2023-05-18T00:40:35;99487.16;;;26.30;42.98
50368;BME280;36281;34.132;-118.018;2023-05-18T00:43:04;99483.97;;;26.28;43.34
50368;BME280;36281;34.132;-118.018;2023-05-18T00:45:33;99489.31;;;26.16;43.84
50368;BME280;36281;34.132;-118.018;2023-05-18T00:48:04;99481.78;;;26.13;43.63
50368;BME280;36281;34.132;-118.018;2023-05-18T00:50:34;99481.34;;;26.02;43.73
50368;BME280;36281;34.132;-118.018;2023-05-18T00:53:04;99478.66;;;25.94;43.87
50368;BME280;36281;34.132;-118.018;2023-05-18T00:55:33;99491.75;;;25.92;43.96
50368;BME280;36281;34.132;-118.018;2023-05-18T00:58:02;99485.22;;;25.84;43.93
50368;BME280;36281;34.132;-118.018;2023-05-18T01:00:33;99487.94;;;25.75;44.13
50368;BME280;36281;34.132;-118.018;2023-05-18T01:03:07;99491.91;;;25.69;44.34
50368;BME280;36281;34.132;-118.018;2023-05-18T01:05:38;99488.56;;;25.64;44.76
50368;BME280;36281;34.132;-118.018;2023-05-18T01:08:08;99482.53;;;25.58;44.53
50368;BME280;36281;34.132;-118.018;2023-05-18T01:10:38;99480.59;;;25.50;44.98
50368;BME280;36281;34.132;-118.018;2023-05-18T01:13:17;99486.69;;;25.47;45.26
50368;BME280;36281;34.132;-118.018;2023-05-18T01:15:53;99485.22;;;25.41;45.22
50368;BME280;36281;34.132;-118.018;2023-05-18T01:18:27;99478.25;;;25.31;45.71
50368;BME280;36281;34.132;-118.018;2023-05-18T01:21:01;99489.69;;;25.19;45.57
50368;BME280;36281;34.132;-118.018;2023-05-18T01:24:01;99497.78;;;25.02;45.88
50368;BME280;36281;34.132;-118.018;2023-05-18T01:26:35;99499.03;;;24.96;46.04
50368;BME280;36281;34.132;-118.018;2023-05-18T01:29:08;99494.22;;;24.84;46.17
50368;BME280;36281;34.132;-118.018;2023-05-18T01:31:40;99499.47;;;24.72;46.40
50368;BME280;36281;34.132;-118.018;2023-05-18T01:34:09;99493.84;;;24.60;46.60
50368;BME280;36281;34.132;-118.018;2023-05-18T01:36:39;99456.72;;;24.20;47.17
50368;BME280;36281;34.132;-118.018;2023-05-18T01:39:08;99503.66;;;24.38;47.63
50368;BME280;36281;34.132;-118.018;2023-05-18T01:41:47;99502.44;;;24.22;47.86
50368;BME280;36281;34.132;-118.018;2023-05-18T01:44:22;99511.28;;;24.14;47.77
50368;BME280;36281;34.132;-118.018;2023-05-18T01:46:55;99516.53;;;24.10;48.20
50368;BME280;36281;34.132;-118.018;2023-05-18T01:49:30;99516.78;;;24.00;48.29
50368;BME280;36281;34.132;-118.018;2023-05-18T01:52:03;99524.84;;;23.91;48.50
50368;BME280;36281;34.132;-118.018;2023-05-18T01:54:36;99520.19;;;23.83;48.79
50368;BME280;36281;34.132;-118.018;2023-05-18T01:57:08;99530.44;;;23.72;49.08
50368;BME280;36281;34.132;-118.018;2023-05-18T01:59:39;99539.38;;;23.59;49.49
50368;BME280;36281;34.132;-118.018;2023-05-18T02:02:09;99537.03;;;23.44;50.08
50368;BME280;36281;34.132;-118.018;2023-05-18T02:04:39;99547.25;;;23.33;50.33
50368;BME280;36281;34.132;-118.018;2023-05-18T02:07:08;99546.97;;;23.21;51.13
50368;BME280;36281;34.132;-118.018;2023-05-18T02:09:37;99549.19;;;23.19;51.61
50368;BME280;36281;34.132;-118.018;2023-05-18T02:12:08;99557.72;;;23.12;51.80
50368;BME280;36281;34.132;-118.018;2023-05-18T02:14:37;99556.81;;;23.03;52.33
50368;BME280;36281;34.132;-118.018;2023-05-18T02:17:06;99553.22;;;22.94;52.29
50368;BME280;36281;34.132;-118.018;2023-05-18T02:19:35;99556.81;;;22.89;52.76
50368;BME280;36281;34.132;-118.018;2023-05-18T02:22:08;99562.06;;;22.81;52.83
50368;BME280;36281;34.132;-118.018;2023-05-18T02:24:37;99564.66;;;22.72;53.36
50368;BME280;36281;34.132;-118.018;2023-05-18T02:27:08;99568.66;;;22.61;53.99
50368;BME280;36281;34.132;-118.018;2023-05-18T02:29:37;99557.66;;;22.43;54.32
50368;BME280;36281;34.132;-118.018;2023-05-18T02:32:06;99569.84;;;22.41;54.59
50368;BME280;36281;34.132;-118.018;2023-05-18T02:34:36;99572.63;;;22.36;55.09
50368;BME280;36281;34.132;-118.018;2023-05-18T02:37:05;99578.09;;;22.31;55.37
50368;BME280;36281;34.132;-118.018;2023-05-18T02:39:35;99574.78;;;22.20;55.93
50368;BME280;36281;34.132;-118.018;2023-05-18T02:42:04;99581.63;;;22.12;56.03
50368;BME280;36281;34.132;-118.018;2023-05-18T02:44:35;99580.72;;;22.03;56.27
50368;BME280;36281;34.132;-118.018;2023-05-18T02:47:04;99593.16;;;21.99;56.39
50368;BME280;36281;34.132;-118.018;2023-05-18T02:49:33;99593.03;;;21.90;56.93
50368;BME280;36281;34.132;-118.018;2023-05-18T02:52:03;99597.69;;;21.85;57.12
50368;BME280;36281;34.132;-118.018;2023-05-18T02:54:32;99599.94;;;21.78;57.54
50368;BME280;36281;34.132;-118.018;2023-05-18T02:57:01;99597.94;;;21.70;57.78
50368;BME280;36281;34.132;-118.018;2023-05-18T02:59:30;99605.06;;;21.60;58.14
50368;BME280;36281;34.132;-118.018;2023-05-18T03:02:01;99615.41;;;21.53;58.51
50368;BME280;36281;34.132;-118.018;2023-05-18T03:04:30;99606.38;;;21.44;58.90
50368;BME280;36281;34.132;-118.018;2023-05-18T03:06:59;99622.66;;;21.34;59.25
50368;BME280;36281;34.132;-118.018;2023-05-18T03:09:30;99617.88;;;21.26;59.72
50368;BME280;36281;34.132;-118.018;2023-05-18T03:11:59;99616.91;;;21.16;60.10
50368;BME280;36281;34.132;-118.018;2023-05-18T03:14:28;99624.78;;;21.08;60.32
50368;BME280;36281;34.132;-118.018;2023-05-18T03:16:58;99623.25;;;21.02;60.67
50368;BME280;36281;34.132;-118.018;2023-05-18T03:19:29;99624.41;;;20.96;60.93
50368;BME280;36281;34.132;-118.018;2023-05-18T03:21:58;99622.34;;;20.87;61.32
50368;BME280;36281;34.132;-118.018;2023-05-18T03:24:27;99613.84;;;20.75;61.67
50368;BME280;36281;34.132;-118.018;2023-05-18T03:26:57;99626.72;;;20.78;61.87
50368;BME280;36281;34.132;-118.018;2023-05-18T03:29:28;99622.50;;;20.72;62.20
50368;BME280;36281;34.132;-118.018;2023-05-18T03:31:58;99630.34;;;20.69;62.23
50368;BME280;36281;34.132;-118.018;2023-05-18T03:34:29;99628.78;;;20.62;62.45
50368;BME280;36281;34.132;-118.018;2023-05-18T03:36:58;99636.91;;;20.57;62.66
50368;BME280;36281;34.132;-118.018;2023-05-18T03:39:27;99636.69;;;20.54;62.82
50368;BME280;36281;34.132;-118.018;2023-05-18T03:41:56;99641.28;;;20.48;62.94
50368;BME280;36281;34.132;-118.018;2023-05-18T03:44:26;99646.72;;;20.38;63.27
50368;BME280;36281;34.132;-118.018;2023-05-18T03:46:55;99648.88;;;20.36;63.48
50368;BME280;36281;34.132;-118.018;2023-05-18T03:49:24;99652.66;;;20.35;63.42
50368;BME280;36281;34.132;-118.018;2023-05-18T03:51:55;99649.78;;;20.26;63.85
50368;BME280;36281;34.132;-118.018;2023-05-18T03:54:24;99652.75;;;20.25;64.05
50368;BME280;36281;34.132;-118.018;2023-05-18T03:56:53;99665.44;;;20.19;64.45
50368;BME280;36281;34.132;-118.018;2023-05-18T03:59:22;99664.13;;;20.11;64.80
50368;BME280;36281;34.132;-118.018;2023-05-18T04:01:52;99672.50;;;20.05;65.12
50368;BME280;36281;34.132;-118.018;2023-05-18T04:04:21;99682.75;;;19.98;65.46
50368;BME280;36281;34.132;-118.018;2023-05-18T04:06:51;99686.28;;;19.93;65.54
50368;BME280;36281;34.132;-118.018;2023-05-18T04:09:21;99680.69;;;19.90;65.74
50368;BME280;36281;34.132;-118.018;2023-05-18T04:11:51;99685.78;;;19.86;65.84
50368;BME280;36281;34.132;-118.018;2023-05-18T04:14:20;99683.13;;;19.81;66.09
50368;BME280;36281;34.132;-118.018;2023-05-18T04:16:52;99686.34;;;19.78;66.18
50368;BME280;36281;34.132;-118.018;2023-05-18T04:19:21;99698.75;;;19.74;66.52
50368;BME280;36281;34.132;-118.018;2023-05-18T04:21:50;99686.16;;;19.69;66.42
50368;BME280;36281;34.132;-118.018;2023-05-18T04:24:21;99704.44;;;19.62;66.56
50368;BME280;36281;34.132;-118.018;2023-05-18T04:26:51;99707.41;;;19.55;66.89
50368;BME280;36281;34.132;-118.018;2023-05-18T04:29:20;99699.38;;;19.45;67.03
50368;BME280;36281;34.132;-118.018;2023-05-18T04:31:49;99709.03;;;19.46;67.32
50368;BME280;36281;34.132;-118.018;2023-05-18T04:34:21;99713.88;;;19.39;67.87
50368;BME280;36281;34.132;-118.018;2023-05-18T04:36:51;99717.41;;;19.34;67.92
50368;BME280;36281;34.132;-118.018;2023-05-18T04:39:28;99720.13;;;19.29;68.17
50368;BME280;36281;34.132;-118.018;2023-05-18T04:41:57;99721.97;;;19.24;68.39
50368;BME280;36281;34.132;-118.018;2023-05-18T04:44:27;99720.94;;;19.20;68.69
50368;BME280;36281;34.132;-118.018;2023-05-18T04:46:57;99723.38;;;19.11;68.83
50368;BME280;36281;34.132;-118.018;2023-05-18T04:49:26;99725.25;;;19.05;69.28
50368;BME280;36281;34.132;-118.018;2023-05-18T04:51:56;99708.63;;;18.88;69.60
50368;BME280;36281;34.132;-118.018;2023-05-18T04:54:28;99732.25;;;18.96;69.83
50368;BME280;36281;34.132;-118.018;2023-05-18T04:57:00;99723.13;;;18.92;69.87
50368;BME280;36281;34.132;-118.018;2023-05-18T04:59:31;99731.44;;;18.91;69.66
50368;BME280;36281;34.132;-118.018;2023-05-18T05:02:04;99732.78;;;18.88;69.32
50368;BME280;36281;34.132;-118.018;2023-05-18T05:04:33;99731.44;;;18.85;69.06
50368;BME280;36281;34.132;-118.018;2023-05-18T05:07:02;99740.53;;;18.84;68.85
50368;BME280;36281;34.132;-118.018;2023-05-18T05:09:33;99737.34;;;18.77;68.79
50368;BME280;36281;34.132;-118.018;2023-05-18T05:12:03;99727.91;;;18.65;68.41
50368;BME280;36281;34.132;-118.018;2023-05-18T05:14:32;99732.22;;;18.60;68.88
50368;BME280;36281;34.132;-118.018;2023-05-18T05:17:01;99737.59;;;18.50;68.97
50368;BME280;36281;34.132;-118.018;2023-05-18T05:19:30;99739.19;;;18.46;69.06
50368;BME280;36281;34.132;-118.018;2023-05-18T05:21:59;99744.25;;;18.43;69.28
50368;BME280;36281;34.132;-118.018;2023-05-18T05:24:28;99738.09;;;18.42;69.40
50368;BME280;36281;34.132;-118.018;2023-05-18T05:26:59;99742.38;;;18.33;69.57
50368;BME280;36281;34.132;-118.018;2023-05-18T05:29:28;99742.38;;;18.28;70.08
50368;BME280;36281;34.132;-118.018;2023-05-18T05:31:57;99735.09;;;18.18;70.58
50368;BME280;36281;34.132;-118.018;2023-05-18T05:34:26;99742.84;;;18.15;70.80
50368;BME280;36281;34.132;-118.018;2023-05-18T05:36:56;99739.66;;;18.13;71.06
50368;BME280;36281;34.132;-118.018;2023-05-18T05:39:25;99738.84;;;18.12;71.26
50368;BME280;36281;34.132;-118.018;2023-05-18T05:41:54;99735.88;;;18.08;71.39
50368;BME280;36281;34.132;-118.018;2023-05-18T05:44:25;99734.28;;;18.07;71.69
50368;BME280;36281;34.132;-118.018;2023-05-18T05:46:54;99733.72;;;18.00;71.50
50368;BME280;36281;34.132;-118.018;2023-05-18T05:49:23;99732.09;;;17.94;71.99
50368;BME280;36281;34.132;-118.018;2023-05-18T05:51:52;99735.84;;;17.93;72.16
50368;BME280;36281;34.132;-118.018;2023-05-18T05:54:21;99732.34;;;17.93;72.22
50368;BME280;36281;34.132;-118.018;2023-05-18T05:56:51;99725.09;;;17.88;72.53
50368;BME280;36281;34.132;-118.018;2023-05-18T05:59:20;99743.84;;;17.88;72.56
50368;BME280;36281;34.132;-118.018;2023-05-18T06:01:51;99737.97;;;17.86;72.87
50368;BME280;36281;34.132;-118.018;2023-05-18T06:04:20;99727.75;;;17.83;72.96
50368;BME280;36281;34.132;-118.018;2023-05-18T06:06:49;99730.97;;;17.80;73.40
50368;BME280;36281;34.132;-118.018;2023-05-18T06:09:18;99735.78;;;17.78;73.55
50368;BME280;36281;34.132;-118.018;2023-05-18T06:11:48;99718.84;;;17.67;73.95
50368;BME280;36281;34.132;-118.018;2023-05-18T06:14:17;99719.94;;;17.71;74.15
50368;BME280;36281;34.132;-118.018;2023-05-18T06:16:46;99722.09;;;17.74;74.05
50368;BME280;36281;34.132;-118.018;2023-05-18T06:19:17;99711.38;;;17.74;74.16
50368;BME280;36281;34.132;-118.018;2023-05-18T06:21:46;99704.97;;;17.75;74.21
50368;BME280;36281;34.132;-118.018;2023-05-18T06:24:15;99708.47;;;17.76;74.45
50368;BME280;36281;34.132;-118.018;2023-05-18T06:26:44;99708.72;;;17.79;74.18
50368;BME280;36281;34.132;-118.018;2023-05-18T06:29:13;99709.00;;;17.78;74.16
50368;BME280;36281;34.132;-118.018;2023-05-18T06:31:42;99703.91;;;17.76;74.13
50368;BME280;36281;34.132;-118.018;2023-05-18T06:34:12;99706.84;;;17.75;74.20
50368;BME280;36281;34.132;-118.018;2023-05-18T06:36:42;99708.16;;;17.72;74.27
50368;BME280;36281;34.132;-118.018;2023-05-18T06:39:11;99704.09;;;17.65;74.46
50368;BME280;36281;34.132;-118.018;2023-05-18T06:41:40;99706.22;;;17.63;74.86
50368;BME280;36281;34.132;-118.018;2023-05-18T06:44:10;99705.44;;;17.62;74.97
50368;BME280;36281;34.132;-118.018;2023-05-18T06:46:39;99693.91;;;17.62;75.09
50368;BME280;36281;34.132;-118.018;2023-05-18T06:49:09;99704.06;;;17.60;75.05
50368;BME280;36281;34.132;-118.018;2023-05-18T06:51:38;99696.03;;;17.60;75.05
50368;BME280;36281;34.132;-118.018;2023-05-18T06:54:09;99696.31;;;17.58;75.37
50368;BME280;36281;34.132;-118.018;2023-05-18T06:56:38;99702.16;;;17.55;75.46
50368;BME280;36281;34.132;-118.018;2023-05-18T06:59:07;99693.34;;;17.54;75.64
50368;BME280;36281;34.132;-118.018;2023-05-18T07:01:36;99698.97;;;17.53;75.72
50368;BME280;36281;34.132;-118.018;2023-05-18T07:04:05;99702.72;;;17.52;75.85
50368;BME280;36281;34.132;-118.018;2023-05-18T07:06:35;99698.69;;;17.54;75.86
50368;BME280;36281;34.132;-118.018;2023-05-18T07:09:04;99696.28;;;17.53;75.92
50368;BME280;36281;34.132;-118.018;2023-05-18T07:11:37;99681.50;;;17.45;76.04
50368;BME280;36281;34.132;-118.018;2023-05-18T07:14:07;99692.28;;;17.50;76.00
50368;BME280;36281;34.132;-118.018;2023-05-18T07:16:36;99690.41;;;17.51;76.17
50368;BME280;36281;34.132;-118.018;2023-05-18T07:19:06;99694.13;;;17.50;76.23
50368;BME280;36281;34.132;-118.018;2023-05-18T07:21:36;99691.19;;;17.46;76.21
50368;BME280;36281;34.132;-118.018;2023-05-18T07:24:05;99697.56;;;17.45;76.20
50368;BME280;36281;34.132;-118.018;2023-05-18T07:26:36;99692.47;;;17.39;76.38
50368;BME280;36281;34.132;-118.018;2023-05-18T07:29:05;99694.59;;;17.37;76.64
50368;BME280;36281;34.132;-118.018;2023-05-18T07:31:34;99690.84;;;17.33;76.84
50368;BME280;36281;34.132;-118.018;2023-05-18T07:34:06;99670.69;;;17.20;76.86
50368;BME280;36281;34.132;-118.018;2023-05-18T07:36:35;99686.78;;;17.25;77.23
50368;BME280;36281;34.132;-118.018;2023-05-18T07:39:04;99678.75;;;17.25;77.31
50368;BME280;36281;34.132;-118.018;2023-05-18T07:41:34;99677.69;;;17.26;77.39
50368;BME280;36281;34.132;-118.018;2023-05-18T07:44:05;99682.22;;;17.25;77.50
50368;BME280;36281;34.132;-118.018;2023-05-18T07:46:34;99679.00;;;17.23;77.56
50368;BME280;36281;34.132;-118.018;2023-05-18T07:49:03;99683.81;;;17.21;77.65
50368;BME280;36281;34.132;-118.018;2023-05-18T07:51:32;99683.25;;;17.19;77.76
50368;BME280;36281;34.132;-118.018;2023-05-18T07:54:01;99680.84;;;17.18;77.83
50368;BME280;36281;34.132;-118.018;2023-05-18T07:56:31;99679.25;;;17.17;77.93
50368;BME280;36281;34.132;-118.018;2023-05-18T07:59:00;99676.00;;;17.15;78.10
50368;BME280;36281;34.132;-118.018;2023-05-18T08:01:30;99682.69;;;17.12;78.23
50368;BME280;36281;34.132;-118.018;2023-05-18T08:04:00;99684.56;;;17.12;78.21
50368;BME280;36281;34.132;-118.018;2023-05-18T08:06:29;99682.41;;;17.09;78.38
50368;BME280;36281;34.132;-118.018;2023-05-18T08:08:59;99684.53;;;17.07;78.55
50368;BME280;36281;34.132;-118.018;2023-05-18T08:11:28;99679.19;;;17.07;78.55
50368;BME280;36281;34.132;-118.018;2023-05-18T08:13:57;99678.94;;;17.08;78.75
50368;BME280;36281;34.132;-118.018;2023-05-18T08:16:26;99673.03;;;17.06;78.70
50368;BME280;36281;34.132;-118.018;2023-05-18T08:18:57;99677.06;;;17.09;78.64
50368;BME280;36281;34.132;-118.018;2023-05-18T08:21:26;99672.22;;;17.05;78.62
50368;BME280;36281;34.132;-118.018;2023-05-18T08:23:55;99668.47;;;17.01;78.77
50368;BME280;36281;34.132;-118.018;2023-05-18T08:26:25;99673.00;;;17.01;78.71
50368;BME280;36281;34.132;-118.018;2023-05-18T08:28:54;99671.38;;;17.00;78.99
50368;BME280;36281;34.132;-118.018;2023-05-18T08:31:24;99662.28;;;16.96;79.08
50368;BME280;36281;34.132;-118.018;2023-05-18T08:33:53;99668.16;;;16.98;79.27
50368;BME280;36281;34.132;-118.018;2023-05-18T08:36:24;99663.88;;;16.97;79.37
50368;BME280;36281;34.132;-118.018;2023-05-18T08:38:53;99667.88;;;16.94;79.45
50368;BME280;36281;34.132;-118.018;2023-05-18T08:41:27;99663.81;;;16.87;79.47
50368;BME280;36281;34.132;-118.018;2023-05-18T08:44:01;99666.50;;;16.87;79.62
50368;BME280;36281;34.132;-118.018;2023-05-18T08:46:34;99669.97;;;16.87;79.55
50368;BME280;36281;34.132;-118.018;2023-05-18T08:49:04;99659.25;;;16.82;79.78
50368;BME280;36281;34.132;-118.018;2023-05-18T08:51:36;99669.66;;;16.84;79.59
50368;BME280;36281;34.132;-118.018;2023-05-18T08:54:05;99669.13;;;16.82;79.75
50368;BME280;36281;34.132;-118.018;2023-05-18T08:56:38;99661.88;;;16.77;80.02
50368;BME280;36281;34.132;-118.018;2023-05-18T08:59:08;99664.56;;;16.77;80.26
50368;BME280;36281;34.132;-118.018;2023-05-18T09:01:38;99657.84;;;16.74;80.16
50368;BME280;36281;34.132;-118.018;2023-05-18T09:04:08;99656.50;;;16.72;80.29
50368;BME280;36281;34.132;-118.018;2023-05-18T09:06:40;99660.22;;;16.71;80.37
50368;BME280;36281;34.132;-118.018;2023-05-18T09:09:10;99652.13;;;16.66;80.52
50368;BME280;36281;34.132;-118.018;2023-05-18T09:11:41;99639.25;;;16.58;80.76
50368;BME280;36281;34.132;-118.018;2023-05-18T09:14:10;99647.81;;;16.60;80.99
50368;BME280;36281;34.132;-118.018;2023-05-18T09:16:39;99639.22;;;16.52;81.28
50368;BME280;36281;34.132;-118.018;2023-05-18T09:19:08;99642.38;;;16.49;81.24
50368;BME280;36281;34.132;-118.018;2023-05-18T09:21:40;99625.25;;;16.45;81.31
50368;BME280;36281;34.132;-118.018;2023-05-18T09:24:09;99635.16;;;16.50;81.24
50368;BME280;36281;34.132;-118.018;2023-05-18T09:26:39;99625.22;;;16.40;81.49
50368;BME280;36281;34.132;-118.018;2023-05-18T09:29:18;99617.19;;;16.40;81.70
50368;BME280;36281;34.132;-118.018;2023-05-18T09:31:48;99620.44;;;16.42;81.78
50368;BME280;36281;34.132;-118.018;2023-05-18T09:34:17;99617.19;;;16.40;81.78
50368;BME280;36281;34.132;-118.018;2023-05-18T09:36:51;99612.59;;;16.36;82.05
50368;BME280;36281;34.132;-118.018;2023-05-18T09:39:25;99612.38;;;16.37;81.98
50368;BME280;36281;34.132;-118.018;2023-05-18T09:41:57;99624.91;;;16.32;82.06
50368;BME280;36281;34.132;-118.018;2023-05-18T09:44:31;99615.47;;;16.24;82.20
50368;BME280;36281;34.132;-118.018;2023-05-18T09:47:07;99609.59;;;16.22;82.48
50368;BME280;36281;34.132;-118.018;2023-05-18T09:49:40;99605.84;;;16.23;82.47
50368;BME280;36281;34.132;-118.018;2023-05-18T09:52:11;99609.28;;;16.18;82.51
50368;BME280;36281;34.132;-118.018;2023-05-18T09:54:40;99606.06;;;16.16;82.59
50368;BME280;36281;34.132;-118.018;2023-05-18T09:57:09;99602.03;;;16.14;82.82
50368;BME280;36281;34.132;-118.018;2023-05-18T09:59:38;99602.25;;;16.07;83.22
50368;BME280;36281;34.132;-118.018;2023-05-18T10:02:07;99595.84;;;16.08;83.40
50368;BME280;36281;34.132;-118.018;2023-05-18T10:04:41;99597.41;;;16.04;83.41
50368;BME280;36281;34.132;-118.018;2023-05-18T10:07:17;99595.00;;;16.02;83.30
50368;BME280;36281;34.132;-118.018;2023-05-18T10:10:00;99598.19;;;16.05;83.27
50368;BME280;36281;34.132;-118.018;2023-05-18T10:12:38;99595.00;;;16.02;83.33
50368;BME280;36281;34.132;-118.018;2023-05-18T10:15:12;99595.22;;;16.01;83.18
50368;BME280;36281;34.132;-118.018;2023-05-18T10:17:45;99593.06;;;15.98;83.45
50368;BME280;36281;34.132;-118.018;2023-05-18T10:20:24;99588.53;;;15.98;83.33
50368;BME280;36281;34.132;-118.018;2023-05-18T10:23:01;99581.81;;;15.96;83.44
50368;BME280;36281;34.132;-118.018;2023-05-18T10:25:36;99579.69;;;15.93;83.44
50368;BME280;36281;34.132;-118.018;2023-05-18T10:28:06;99584.72;;;15.89;83.46
50368;BME280;36281;34.132;-118.018;2023-05-18T10:30:39;99583.09;;;15.88;83.86
50368;BME280;36281;34.132;-118.018;2023-05-18T10:33:10;99570.81;;;15.87;84.01
50368;BME280;36281;34.132;-118.018;2023-05-18T10:35:55;99564.63;;;15.82;83.93
50368;BME280;36281;34.132;-118.018;2023-05-18T10:38:26;99578.81;;;15.87;83.89
50368;BME280;36281;34.132;-118.018;2023-05-18T10:40:57;99577.19;;;15.86;83.82
50368;BME280;36281;34.132;-118.018;2023-05-18T10:43:28;99580.13;;;15.85;83.71
50368;BME280;36281;34.132;-118.018;2023-05-18T10:45:59;99575.03;;;15.83;83.63
50368;BME280;36281;34.132;-118.018;2023-05-18T10:48:29;99571.25;;;15.79;83.36
50368;BME280;36281;34.132;-118.018;2023-05-18T10:50:58;99579.81;;;15.81;83.35
50368;BME280;36281;34.132;-118.018;2023-05-18T10:53:29;99571.75;;;15.76;83.44
50368;BME280;36281;34.132;-118.018;2023-05-18T10:55:59;99578.47;;;15.79;83.67
50368;BME280;36281;34.132;-118.018;2023-05-18T10:58:30;99577.09;;;15.76;83.72
50368;BME280;36281;34.132;-118.018;2023-05-18T11:01:01;99584.56;;;15.74;83.84
50368;BME280;36281;34.132;-118.018;2023-05-18T11:03:33;99578.69;;;15.72;83.85
50368;BME280;36281;34.132;-118.018;2023-05-18T11:06:07;99585.06;;;15.71;83.80
50368;BME280;36281;34.132;-118.018;2023-05-18T11:08:45;99586.13;;;15.70;83.74
50368;BME280;36281;34.132;-118.018;2023-05-18T11:11:15;99596.81;;;15.70;83.85
50368;BME280;36281;34.132;-118.018;2023-05-18T11:13:48;99588.25;;;15.68;83.85
50368;BME280;36281;34.132;-118.018;2023-05-18T11:16:18;99596.53;;;15.66;84.05
50368;BME280;36281;34.132;-118.018;2023-05-18T11:18:49;99597.81;;;15.64;84.35
50368;BME280;36281;34.132;-118.018;2023-05-18T11:21:30;99597.47;;;15.60;84.60
50368;BME280;36281;34.132;-118.018;2023-05-18T11:24:21;99592.81;;;15.50;85.36
50368;BME280;36281;34.132;-118.018;2023-05-18T11:26:55;99590.69;;;15.47;85.85
50368;BME280;36281;34.132;-118.018;2023-05-18T11:29:31;99599.75;;;15.46;86.16
50368;BME280;36281;34.132;-118.018;2023-05-18T11:32:02;99592.22;;;15.43;86.38
50368;BME280;36281;34.132;-118.018;2023-05-18T11:34:36;99585.81;;;15.44;86.27
50368;BME280;36281;34.132;-118.018;2023-05-18T11:37:08;99588.19;;;15.41;86.39
50368;BME280;36281;34.132;-118.018;2023-05-18T11:39:39;99581.56;;;15.43;86.36
50368;BME280;36281;34.132;-118.018;2023-05-18T11:42:31;99585.03;;;15.44;86.20
50368;BME280;36281;34.132;-118.018;2023-05-18T11:45:08;99581.28;;;15.45;86.07
50368;BME280;36281;34.132;-118.018;2023-05-18T11:47:38;99579.94;;;15.42;85.95
50368;BME280;36281;34.132;-118.018;2023-05-18T11:50:09;99573.81;;;15.42;85.89
50368;BME280;36281;34.132;-118.018;2023-05-18T11:52:46;99588.19;;;15.41;85.74
50368;BME280;36281;34.132;-118.018;2023-05-18T11:55:18;99577.50;;;15.41;85.48
50368;BME280;36281;34.132;-118.018;2023-05-18T11:57:48;99578.03;;;15.38;85.20
50368;BME280;36281;34.132;-118.018;2023-05-18T12:00:20;99583.91;;;15.40;85.62
50368;BME280;36281;34.132;-118.018;2023-05-18T12:02:52;99586.84;;;15.38;85.93
50368;BME280;36281;34.132;-118.018;2023-05-18T12:05:24;99579.38;;;15.40;85.82
50368;BME280;36281;34.132;-118.018;2023-05-18T12:07:58;99587.38;;;15.40;86.22
50368;BME280;36281;34.132;-118.018;2023-05-18T12:10:29;99576.09;;;15.33;86.65
50368;BME280;36281;34.132;-118.018;2023-05-18T12:12:59;99570.25;;;15.36;86.75
50368;BME280;36281;34.132;-118.018;2023-05-18T12:15:29;99568.09;;;15.33;86.51
50368;BME280;36281;34.132;-118.018;2023-05-18T12:17:59;99573.44;;;15.33;86.51
50368;BME280;36281;34.132;-118.018;2023-05-18T12:20:28;99573.44;;;15.33;86.70
50368;BME280;36281;34.132;-118.018;2023-05-18T12:22:58;99568.03;;;15.28;86.63
50368;BME280;36281;34.132;-118.018;2023-05-18T12:25:30;99565.91;;;15.30;87.00
50368;BME280;36281;34.132;-118.018;2023-05-18T12:28:00;99577.66;;;15.29;87.09
50368;BME280;36281;34.132;-118.018;2023-05-18T12:30:29;99577.66;;;15.29;86.91
50368;BME280;36281;34.132;-118.018;2023-05-18T12:33:05;99569.66;;;15.29;86.93
50368;BME280;36281;34.132;-118.018;2023-05-18T12:35:35;99578.13;;;15.26;86.83
50368;BME280;36281;34.132;-118.018;2023-05-18T12:38:04;99573.88;;;15.25;86.61
50368;BME280;36281;34.132;-118.018;2023-05-18T12:40:37;99576.47;;;15.20;86.95
50368;BME280;36281;34.132;-118.018;2023-05-18T12:43:14;99582.31;;;15.17;87.31
50368;BME280;36281;34.132;-118.018;2023-05-18T12:45:43;99581.19;;;15.13;87.76
50368;BME280;36281;34.132;-118.018;2023-05-18T12:48:13;99584.41;;;15.15;87.74